sensor_id;sensor_type;location;lat;lon;timestamp;P1;durP1;ratioP1;P2;durP2;ratioP2
52488;SDS011;38399;52.236;104.280;2022-10-03T13:12:02;10.93;;;5.25;;
52488;SDS011;38399;52.236;104.280;2022-10-03T13:17:32;9.02;;;4.25;;
52488;SDS011;38399;52.236;104.280;2022-10-03T13:20:01;10.88;;;3.88;;
52488;SDS011;38399;52.236;104.280;2022-10-03T13:22:40;5.25;;;3.47;;
52488;SDS011;38399;52.236;104.280;2022-10-03T13:25:21;8.57;;;4.43;;
52488;SDS011;38399;52.236;104.280;2022-10-03T13:28:30;9.70;;;4.90;;
52488;SDS011;38399;52.236;104.280;2022-10-03T13:31:16;8.13;;;3.80;;
52488;SDS011;38399;52.236;104.280;2022-10-03T13:33:50;9.98;;;4.82;;
52488;SDS011;38399;52.236;104.280;2022-10-03T13:36:25;10.00;;;5.40;;
52488;SDS011;38399;52.236;104.280;2022-10-03T13:55:12;8.02;;;4.00;;
52488;SDS011;38399;52.236;104.280;2022-10-03T14:00:18;10.30;;;4.82;;
52488;SDS011;38399;52.236;104.280;2022-10-03T14:06:09;11.40;;;5.38;;
52488;SDS011;38399;52.236;104.280;2022-10-03T14:20:25;31.00;;;13.15;;
52488;SDS011;38399;52.236;104.280;2022-10-03T14:23:05;31.42;;;15.30;;
52488;SDS011;38399;52.236;104.280;2022-10-03T14:25:59;40.65;;;17.23;;
52488;SDS011;38399;52.236;104.280;2022-10-03T14:43:44;15.60;;;7.28;;
52488;SDS011;38399;52.236;104.280;2022-10-03T14:46:17;12.68;;;7.38;;
52488;SDS011;38399;52.236;104.280;2022-10-03T14:48:46;24.58;;;10.20;;
52488;SDS011;38399;52.236;104.280;2022-10-03T14:54:20;19.88;;;8.50;;
52488;SDS011;38399;52.236;104.280;2022-10-03T14:56:49;12.75;;;6.05;;
52488;SDS011;38399;52.236;104.280;2022-10-03T14:59:19;16.65;;;7.25;;
52488;SDS011;38399;52.236;104.280;2022-10-03T15:01:54;24.75;;;9.55;;
52488;SDS011;38399;52.236;104.280;2022-10-03T15:04:43;18.10;;;7.93;;
52488;SDS011;38399;52.236;104.280;2022-10-03T15:07:08;29.40;;;11.27;;
52488;SDS011;38399;52.236;104.280;2022-10-03T15:15:04;32.70;;;11.00;;
52488;SDS011;38399;52.236;104.280;2022-10-03T15:17:41;44.60;;;15.18;;
52488;SDS011;38399;52.236;104.280;2022-10-03T15:20:10;48.90;;;20.33;;
52488;SDS011;38399;52.236;104.280;2022-10-03T15:22:38;51.90;;;23.08;;
52488;SDS011;38399;52.236;104.280;2022-10-03T15:25:18;45.33;;;20.98;;
52488;SDS011;38399;52.236;104.280;2022-10-03T15:27:49;24.60;;;13.02;;
52488;SDS011;38399;52.236;104.280;2022-10-03T15:30:20;23.42;;;12.60;;
52488;SDS011;38399;52.236;104.280;2022-10-03T15:32:47;27.05;;;12.73;;
52488;SDS011;38399;52.236;104.280;2022-10-03T15:35:25;23.88;;;11.60;;
52488;SDS011;38399;52.236;104.280;2022-10-03T15:37:54;22.02;;;10.52;;
52488;SDS011;38399;52.236;104.280;2022-10-03T15:43:05;24.25;;;9.60;;
52488;SDS011;38399;52.236;104.280;2022-10-03T15:45:53;12.50;;;7.47;;
52488;SDS011;38399;52.236;104.280;2022-10-03T15:48:21;17.50;;;8.73;;
52488;SDS011;38399;52.236;104.280;2022-10-03T15:50:51;14.18;;;6.85;;
52488;SDS011;38399;52.236;104.280;2022-10-03T15:53:23;14.10;;;6.88;;
52488;SDS011;38399;52.236;104.280;2022-10-03T15:55:52;12.52;;;6.88;;
52488;SDS011;38399;52.236;104.280;2022-10-03T15:58:32;15.85;;;8.20;;
52488;SDS011;38399;52.236;104.280;2022-10-03T16:03:30;17.67;;;7.82;;
52488;SDS011;38399;52.236;104.280;2022-10-03T16:06:16;15.45;;;7.95;;
52488;SDS011;38399;52.236;104.280;2022-10-03T16:09:05;16.55;;;7.97;;
52488;SDS011;38399;52.236;104.280;2022-10-03T16:19:50;14.20;;;6.65;;
52488;SDS011;38399;52.236;104.280;2022-10-03T16:22:29;14.27;;;6.90;;
52488;SDS011;38399;52.236;104.280;2022-10-03T16:27:38;12.80;;;5.88;;
52488;SDS011;38399;52.236;104.280;2022-10-03T16:32:38;10.48;;;5.40;;
52488;SDS011;38399;52.236;104.280;2022-10-03T16:35:42;15.32;;;6.60;;
52488;SDS011;38399;52.236;104.280;2022-10-03T16:38:32;14.07;;;6.60;;
52488;SDS011;38399;52.236;104.280;2022-10-03T16:41:04;11.85;;;6.20;;
52488;SDS011;38399;52.236;104.280;2022-10-03T16:43:40;11.90;;;5.70;;
52488;SDS011;38399;52.236;104.280;2022-10-03T16:46:24;10.25;;;5.53;;
52488;SDS011;38399;52.236;104.280;2022-10-03T16:48:54;11.70;;;5.75;;
52488;SDS011;38399;52.236;104.280;2022-10-03T16:51:42;15.80;;;5.95;;
52488;SDS011;38399;52.236;104.280;2022-10-03T16:54:12;20.25;;;6.57;;
52488;SDS011;38399;52.236;104.280;2022-10-03T16:56:44;10.80;;;5.65;;
52488;SDS011;38399;52.236;104.280;2022-10-03T16:59:18;13.32;;;6.88;;
52488;SDS011;38399;52.236;104.280;2022-10-03T17:01:50;15.07;;;6.45;;
52488;SDS011;38399;52.236;104.280;2022-10-03T17:04:24;14.65;;;7.43;;
52488;SDS011;38399;52.236;104.280;2022-10-03T17:06:58;10.60;;;6.45;;
52488;SDS011;38399;52.236;104.280;2022-10-03T17:09:41;12.63;;;5.95;;
52488;SDS011;38399;52.236;104.280;2022-10-03T17:12:21;13.00;;;7.20;;
52488;SDS011;38399;52.236;104.280;2022-10-03T17:14:49;16.30;;;8.18;;
52488;SDS011;38399;52.236;104.280;2022-10-03T17:20:18;15.48;;;7.28;;
52488;SDS011;38399;52.236;104.280;2022-10-03T17:23:05;16.83;;;8.38;;
52488;SDS011;38399;52.236;104.280;2022-10-03T17:28:33;14.60;;;8.00;;
52488;SDS011;38399;52.236;104.280;2022-10-03T17:42:43;20.73;;;10.77;;
52488;SDS011;38399;52.236;104.280;2022-10-03T17:53:47;26.17;;;13.30;;
52488;SDS011;38399;52.236;104.280;2022-10-03T17:56:18;22.38;;;11.95;;
52488;SDS011;38399;52.236;104.280;2022-10-03T17:58:50;24.73;;;11.88;;
52488;SDS011;38399;52.236;104.280;2022-10-03T18:01:26;31.25;;;12.55;;
52488;SDS011;38399;52.236;104.280;2022-10-03T18:04:02;22.65;;;11.50;;
52488;SDS011;38399;52.236;104.280;2022-10-03T18:06:36;24.55;;;10.65;;
52488;SDS011;38399;52.236;104.280;2022-10-03T18:09:26;20.65;;;11.52;;
52488;SDS011;38399;52.236;104.280;2022-10-03T18:11:59;22.65;;;11.25;;
52488;SDS011;38399;52.236;104.280;2022-10-03T18:14:49;21.58;;;11.52;;
52488;SDS011;38399;52.236;104.280;2022-10-03T18:17:38;19.80;;;9.93;;
52488;SDS011;38399;52.236;104.280;2022-10-03T18:23:02;16.85;;;9.68;;
52488;SDS011;38399;52.236;104.280;2022-10-03T18:26:34;20.23;;;9.98;;
52488;SDS011;38399;52.236;104.280;2022-10-03T18:28:40;20.58;;;9.88;;
52488;SDS011;38399;52.236;104.280;2022-10-03T18:31:16;16.95;;;8.93;;
52488;SDS011;38399;52.236;104.280;2022-10-03T18:33:46;14.38;;;8.73;;
52488;SDS011;38399;52.236;104.280;2022-10-03T18:36:42;12.88;;;7.72;;
52488;SDS011;38399;52.236;104.280;2022-10-03T18:39:28;16.25;;;8.02;;
52488;SDS011;38399;52.236;104.280;2022-10-03T18:41:58;17.23;;;8.32;;
52488;SDS011;38399;52.236;104.280;2022-10-03T18:44:27;17.42;;;7.55;;
52488;SDS011;38399;52.236;104.280;2022-10-03T18:47:18;18.58;;;7.60;;
52488;SDS011;38399;52.236;104.280;2022-10-03T18:50:01;16.95;;;8.25;;
52488;SDS011;38399;52.236;104.280;2022-10-03T18:52:47;16.45;;;8.13;;
52488;SDS011;38399;52.236;104.280;2022-10-03T18:55:27;15.40;;;8.38;;
52488;SDS011;38399;52.236;104.280;2022-10-03T19:00:56;18.17;;;9.20;;
52488;SDS011;38399;52.236;104.280;2022-10-03T19:04:13;14.95;;;8.18;;
52488;SDS011;38399;52.236;104.280;2022-10-03T19:06:27;12.85;;;7.15;;
52488;SDS011;38399;52.236;104.280;2022-10-03T19:08:58;15.40;;;7.13;;
52488;SDS011;38399;52.236;104.280;2022-10-03T19:11:38;11.57;;;7.40;;
52488;SDS011;38399;52.236;104.280;2022-10-03T19:22:23;11.27;;;7.03;;
52488;SDS011;38399;52.236;104.280;2022-10-03T19:24:54;10.35;;;6.35;;
52488;SDS011;38399;52.236;104.280;2022-10-03T19:27:47;13.07;;;6.13;;
52488;SDS011;38399;52.236;104.280;2022-10-03T19:30:19;9.85;;;6.30;;
52488;SDS011;38399;52.236;104.280;2022-10-03T19:32:57;12.27;;;7.15;;
52488;SDS011;38399;52.236;104.280;2022-10-03T19:35:29;9.85;;;6.00;;
52488;SDS011;38399;52.236;104.280;2022-10-03T19:38:17;9.50;;;5.72;;
52488;SDS011;38399;52.236;104.280;2022-10-03T19:40:57;10.48;;;5.53;;
52488;SDS011;38399;52.236;104.280;2022-10-03T19:43:43;10.60;;;5.75;;
52488;SDS011;38399;52.236;104.280;2022-10-03T19:48:48;10.73;;;5.55;;
52488;SDS011;38399;52.236;104.280;2022-10-03T19:51:19;9.73;;;5.32;;
52488;SDS011;38399;52.236;104.280;2022-10-03T19:53:48;8.32;;;5.63;;
52488;SDS011;38399;52.236;104.280;2022-10-03T19:56:17;9.07;;;5.13;;
52488;SDS011;38399;52.236;104.280;2022-10-03T19:58:46;9.73;;;5.38;;
52488;SDS011;38399;52.236;104.280;2022-10-03T20:01:23;10.25;;;5.68;;
52488;SDS011;38399;52.236;104.280;2022-10-03T20:04:08;8.00;;;5.25;;
52488;SDS011;38399;52.236;104.280;2022-10-03T20:06:36;8.30;;;5.50;;
52488;SDS011;38399;52.236;104.280;2022-10-03T20:09:20;8.45;;;4.70;;
52488;SDS011;38399;52.236;104.280;2022-10-03T20:14:35;8.98;;;5.80;;
52488;SDS011;38399;52.236;104.280;2022-10-03T20:17:16;10.13;;;5.32;;
52488;SDS011;38399;52.236;104.280;2022-10-03T20:22:25;9.40;;;5.85;;
52488;SDS011;38399;52.236;104.280;2022-10-03T20:24:53;9.95;;;5.38;;
52488;SDS011;38399;52.236;104.280;2022-10-03T20:32:52;10.82;;;6.18;;
52488;SDS011;38399;52.236;104.280;2022-10-03T20:35:24;9.45;;;6.47;;
52488;SDS011;38399;52.236;104.280;2022-10-03T20:40:42;12.30;;;7.10;;
52488;SDS011;38399;52.236;104.280;2022-10-03T20:43:33;10.63;;;7.05;;
52488;SDS011;38399;52.236;104.280;2022-10-03T20:46:13;11.48;;;7.63;;
52488;SDS011;38399;52.236;104.280;2022-10-03T20:51:40;15.55;;;6.97;;
52488;SDS011;38399;52.236;104.280;2022-10-03T20:54:19;17.02;;;7.07;;
52488;SDS011;38399;52.236;104.280;2022-10-03T20:56:52;11.60;;;7.63;;
52488;SDS011;38399;52.236;104.280;2022-10-03T20:59:34;10.65;;;6.78;;
52488;SDS011;38399;52.236;104.280;2022-10-03T21:02:18;10.32;;;7.18;;
52488;SDS011;38399;52.236;104.280;2022-10-03T21:04:55;13.02;;;7.60;;
52488;SDS011;38399;52.236;104.280;2022-10-03T21:07:52;12.02;;;7.65;;
52488;SDS011;38399;52.236;104.280;2022-10-03T21:12:46;14.48;;;6.97;;
52488;SDS011;38399;52.236;104.280;2022-10-03T21:17:45;14.20;;;7.22;;
52488;SDS011;38399;52.236;104.280;2022-10-03T21:20:16;10.15;;;7.43;;
52488;SDS011;38399;52.236;104.280;2022-10-03T21:22:51;17.33;;;8.05;;
52488;SDS011;38399;52.236;104.280;2022-10-03T21:25:29;11.60;;;6.72;;
52488;SDS011;38399;52.236;104.280;2022-10-03T21:27:59;14.80;;;8.20;;
52488;SDS011;38399;52.236;104.280;2022-10-03T21:33:10;12.20;;;7.90;;
52488;SDS011;38399;52.236;104.280;2022-10-03T21:35:51;14.30;;;8.13;;
52488;SDS011;38399;52.236;104.280;2022-10-03T21:38:28;18.67;;;9.02;;
52488;SDS011;38399;52.236;104.280;2022-10-03T21:57:26;16.23;;;8.82;;
52488;SDS011;38399;52.236;104.280;2022-10-03T22:03:20;17.55;;;9.75;;
52488;SDS011;38399;52.236;104.280;2022-10-03T22:05:56;15.40;;;8.30;;
52488;SDS011;38399;52.236;104.280;2022-10-03T22:08:39;14.45;;;9.00;;
52488;SDS011;38399;52.236;104.280;2022-10-03T22:22:43;19.60;;;10.00;;
52488;SDS011;38399;52.236;104.280;2022-10-03T22:34:31;20.85;;;11.98;;
52488;SDS011;38399;52.236;104.280;2022-10-03T22:39:24;25.33;;;12.93;;
52488;SDS011;38399;52.236;104.280;2022-10-03T22:41:52;22.38;;;13.48;;
52488;SDS011;38399;52.236;104.280;2022-10-03T22:44:23;23.05;;;12.73;;
52488;SDS011;38399;52.236;104.280;2022-10-03T22:46:54;20.60;;;12.32;;
52488;SDS011;38399;52.236;104.280;2022-10-03T22:49:26;23.83;;;11.80;;
52488;SDS011;38399;52.236;104.280;2022-10-03T22:51:53;25.42;;;12.48;;
52488;SDS011;38399;52.236;104.280;2022-10-03T22:54:28;25.05;;;12.85;;
52488;SDS011;38399;52.236;104.280;2022-10-03T22:57:03;22.52;;;12.68;;
52488;SDS011;38399;52.236;104.280;2022-10-03T23:02:43;23.05;;;12.05;;
52488;SDS011;38399;52.236;104.280;2022-10-03T23:05:15;33.17;;;12.27;;
52488;SDS011;38399;52.236;104.280;2022-10-03T23:10:31;23.45;;;13.52;;
52488;SDS011;38399;52.236;104.280;2022-10-03T23:13:02;23.13;;;12.52;;
52488;SDS011;38399;52.236;104.280;2022-10-03T23:15:35;19.35;;;10.93;;
52488;SDS011;38399;52.236;104.280;2022-10-03T23:18:25;26.13;;;12.38;;
52488;SDS011;38399;52.236;104.280;2022-10-03T23:21:23;21.17;;;12.50;;
52488;SDS011;38399;52.236;104.280;2022-10-03T23:24:01;21.10;;;11.50;;
52488;SDS011;38399;52.236;104.280;2022-10-03T23:29:17;22.83;;;12.45;;
52488;SDS011;38399;52.236;104.280;2022-10-03T23:31:52;22.58;;;12.00;;
52488;SDS011;38399;52.236;104.280;2022-10-03T23:39:38;21.77;;;11.38;;
52488;SDS011;38399;52.236;104.280;2022-10-03T23:42:14;16.70;;;10.02;;
52488;SDS011;38399;52.236;104.280;2022-10-03T23:44:45;19.33;;;11.15;;
52488;SDS011;38399;52.236;104.280;2022-10-03T23:47:22;17.92;;;10.90;;
52488;SDS011;38399;52.236;104.280;2022-10-03T23:50:18;19.27;;;11.25;;
52488;SDS011;38399;52.236;104.280;2022-10-03T23:52:51;22.75;;;11.13;;
52488;SDS011;38399;52.236;104.280;2022-10-03T23:55:23;22.77;;;10.18;;
52488;SDS011;38399;52.236;104.280;2022-10-03T23:57:51;20.23;;;10.23;;
